Time;durP1;ratioP1;P1;durP2;ratioP2;P2;SDS_P1;SDS_P2;PMS_P1;PMS_P2;Temp;Humidity;BMP_temperature;BMP_pressure;BME280_temperature;BME280_humidity;BME280_pressure;Samples;Min_cycle;Max_cycle;Signal;HPM_P1;HPM_P2
2022/03/29 00:01:03;;;;;;;26.85;12.32;;;;;;;10.19;86.48;101237.34;5079447;28;20105;-73
2022/03/29 00:03:29;;;;;;;31.33;14.07;;;;;;;10.11;86.57;101230.19;5074124;28;20084;-72
2022/03/29 00:05:56;;;;;;;33.55;13.88;;;;;;;10.11;86.82;101223.84;5087018;28;20432;-72
2022/03/29 00:08:23;;;;;;;30.45;14.60;;;;;;;10.05;87.38;101220.59;5084498;28;20135;-71
2022/03/29 00:10:49;;;;;;;30.35;14.77;;;;;;;9.98;87.13;101215.00;5077794;28;20079;-71
2022/03/29 00:13:16;;;;;;;33.17;14.15;;;;;;;9.93;87.58;101214.56;5078040;28;20043;-71
2022/03/29 00:15:43;;;;;;;32.25;14.73;;;;;;;9.94;88.67;101218.91;5076934;28;20113;-72
2022/03/29 00:18:10;;;;;;;36.38;15.85;;;;;;;9.95;89.27;101215.78;5072411;28;20048;-71
2022/03/29 00:20:36;;;;;;;34.20;15.73;;;;;;;9.85;89.33;101210.94;5071489;28;20497;-72
2022/03/29 00:23:03;;;;;;;33.53;16.52;;;;;;;9.91;90.40;101209.41;5082622;28;20047;-72
2022/03/29 00:25:30;;;;;;;39.03;15.32;;;;;;;9.96;90.87;101217.34;5081199;28;20071;-71
2022/03/29 00:27:56;;;;;;;33.15;16.85;;;;;;;9.93;90.74;101197.97;5073994;28;20493;-71
2022/03/29 00:30:23;;;;;;;35.95;15.18;;;;;;;10.00;90.15;101211.88;5073562;28;20048;-70
2022/03/29 00:32:49;;;;;;;37.20;14.77;;;;;;;10.00;90.52;101204.34;5069225;28;20078;-73
2022/03/29 00:35:16;;;;;;;33.80;15.75;;;;;;;10.00;90.60;101198.81;5079523;28;20135;-72
2022/03/29 00:37:43;;;;;;;33.03;15.95;;;;;;;10.06;89.40;101200.09;5072220;28;20050;-72
2022/03/29 00:40:12;;;;;;;32.15;16.15;;;;;;;10.02;89.64;101199.25;5080924;28;20071;-74
2022/03/29 00:42:40;;;;;;;35.58;16.27;;;;;;;9.97;88.90;101202.38;5072858;28;20048;-72
2022/03/29 00:45:07;;;;;;;34.75;16.27;;;;;;;9.99;89.91;101197.25;5073720;28;20136;-72
2022/03/29 00:47:34;;;;;;;34.05;15.13;;;;;;;9.94;89.92;101191.28;5077875;28;20087;-74
2022/03/29 00:50:01;;;;;;;32.90;14.60;;;;;;;9.94;90.16;101194.03;5077371;28;20052;-72
2022/03/29 00:52:28;;;;;;;34.75;15.60;;;;;;;9.94;90.08;101191.28;5083011;28;20044;-72
2022/03/29 00:54:54;;;;;;;32.95;15.45;;;;;;;9.96;90.36;101192.47;5065466;28;20148;-73
2022/03/29 00:57:21;;;;;;;37.83;16.58;;;;;;;10.00;89.48;101185.00;5078750;28;20048;-71
2022/03/29 00:59:49;;;;;;;36.58;18.00;;;;;;;9.89;90.24;101175.81;5071765;28;20088;-73
2022/03/29 01:02:16;;;;;;;33.15;16.23;;;;;;;9.90;90.38;101180.19;5073269;28;20127;-72
2022/03/29 01:04:43;;;;;;;35.20;16.67;;;;;;;9.85;90.23;101183.28;5082708;28;20059;-71
2022/03/29 01:07:11;;;;;;;34.25;15.60;;;;;;;9.84;91.01;101183.69;5071495;28;20067;-71
2022/03/29 01:09:37;;;;;;;34.63;17.30;;;;;;;9.80;91.39;101194.72;5082135;28;20048;-72
2022/03/29 01:12:04;;;;;;;34.65;17.63;;;;;;;9.75;89.90;101183.19;5069809;28;20596;-71
2022/03/29 01:14:32;;;;;;;38.15;17.58;;;;;;;9.71;91.89;101183.16;5065138;28;20065;-71
2022/03/29 01:19:47;;;;;;;37.47;17.83;;;;;;;9.70;92.79;101184.34;5071286;28;20588;-71
2022/03/29 01:22:13;;;;;;;36.40;17.27;;;;;;;9.69;90.68;101179.19;5066352;28;20076;-73
2022/03/29 01:24:43;;;;;;;34.38;16.38;;;;;;;9.66;92.85;101174.44;5076301;28;20117;-73
2022/03/29 01:27:11;;;;;;;31.95;15.80;;;;;;;9.66;92.34;101177.19;5079804;28;20875;-71
2022/03/29 01:29:39;;;;;;;33.50;17.33;;;;;;;9.64;92.60;101162.94;5073611;28;20128;-72
2022/03/29 01:32:11;;;;;;;33.47;17.30;;;;;;;9.65;92.97;101167.31;5064692;28;20497;-72
2022/03/29 01:34:41;;;;;;;39.08;17.38;;;;;;;9.63;92.99;101169.66;5079877;28;20064;-71
2022/03/29 01:37:08;;;;;;;33.90;16.80;;;;;;;9.63;93.71;101167.72;5070865;28;20126;-72
2022/03/29 01:39:36;;;;;;;36.33;18.00;;;;;;;9.63;94.03;101166.91;5080438;28;20039;-72
2022/03/29 01:42:04;;;;;;;38.17;19.35;;;;;;;9.63;93.94;101166.91;5069223;28;20052;-72
2022/03/29 01:44:32;;;;;;;35.13;18.10;;;;;;;9.60;95.18;101171.22;5066417;28;20052;-71
2022/03/29 01:46:59;;;;;;;34.80;16.08;;;;;;;9.62;94.81;101168.09;5083360;28;20109;-71
2022/03/29 01:49:25;;;;;;;36.10;16.35;;;;;;;9.61;94.46;101164.50;5084298;28;20064;-73
2022/03/29 01:51:53;;;;;;;33.15;16.83;;;;;;;9.59;94.33;101155.81;5078706;28;20131;-71
2022/03/29 01:54:19;;;;;;;36.55;17.58;;;;;;;9.58;95.06;101156.97;5075670;28;20044;-71
2022/03/29 01:56:46;;;;;;;36.15;18.65;;;;;;;9.53;95.22;101148.25;5083288;28;20499;-72
2022/03/29 01:59:12;;;;;;;39.90;19.00;;;;;;;9.52;95.09;101158.50;5067269;28;20056;-71
2022/03/29 02:01:46;;;;;;;40.20;19.88;;;;;;;9.53;95.07;101156.53;5073639;28;20123;-73
2022/03/29 02:04:14;;;;;;;38.25;18.75;;;;;;;9.55;95.49;101152.22;5072533;28;20056;-71
2022/03/29 02:06:41;;;;;;;42.53;21.50;;;;;;;9.53;95.17;101148.25;5068145;28;20165;-71
2022/03/29 02:09:08;;;;;;;40.90;20.00;;;;;;;9.55;95.77;101146.69;5079350;28;20039;-72
2022/03/29 02:11:38;;;;;;;40.50;20.67;;;;;;;9.53;95.70;101148.25;5075061;28;20048;-71
2022/03/29 02:14:05;;;;;;;43.30;21.10;;;;;;;9.53;96.14;101153.78;5079263;28;20135;-73
2022/03/29 02:16:33;;;;;;;46.20;22.35;;;;;;;9.50;97.16;101151.75;5076078;28;20714;-73
2022/03/29 02:19:00;;;;;;;42.55;21.58;;;;;;;9.53;98.48;101145.50;5074839;28;20130;-70
2022/03/29 02:21:26;;;;;;;45.33;22.63;;;;;;;9.59;98.19;101152.25;5066030;28;20041;-71
2022/03/29 02:23:53;;;;;;;49.13;22.88;;;;;;;9.58;98.29;101145.13;5065377;28;20053;-71
2022/03/29 02:26:19;;;;;;;46.50;23.58;;;;;;;9.58;99.42;101145.13;5079008;28;20131;-71
2022/03/29 02:28:46;;;;;;;47.80;25.17;;;;;;;9.61;99.14;101136.09;5075413;28;20139;-71
2022/03/29 02:31:12;;;;;;;57.55;26.02;;;;;;;9.62;98.64;101134.94;5074468;28;20056;-71
2022/03/29 02:33:39;;;;;;;44.53;23.38;;;;;;;9.63;99.87;101131.78;5067352;28;20057;-70
2022/03/29 02:36:07;;;;;;;44.55;23.20;;;;;;;9.65;99.91;101134.94;5066616;28;20049;-72
2022/03/29 02:38:34;;;;;;;49.08;25.52;;;;;;;9.68;99.77;101134.19;5078409;28;20127;-71
2022/03/29 02:41:00;;;;;;;47.67;23.42;;;;;;;9.65;100.00;101121.13;5072779;28;20072;-71
2022/03/29 02:43:27;;;;;;;49.15;24.52;;;;;;;9.62;100.00;101112.81;5070105;28;20072;-72
2022/03/29 02:45:53;;;;;;;44.97;23.25;;;;;;;9.62;100.00;101116.38;5067707;28;20818;-72
2022/03/29 02:48:20;;;;;;;44.25;23.95;;;;;;;9.61;100.00;101102.94;5070485;28;20048;-74
2022/03/29 02:50:47;;;;;;;48.47;22.85;;;;;;;9.58;100.00;101112.78;5078622;28;20127;-72
2022/03/29 02:53:15;;;;;;;46.10;24.42;;;;;;;9.55;100.00;101110.78;5078227;28;20091;-73
2022/03/29 02:55:42;;;;;;;46.35;22.92;;;;;;;9.51;100.00;101111.91;5075782;28;20474;-73
2022/03/29 02:58:10;;;;;;;49.67;24.52;;;;;;;9.52;100.00;101108.78;5073354;28;20151;-74
2022/03/29 03:00:37;;;;;;;52.25;25.48;;;;;;;9.48;100.00;101099.66;5080714;28;20052;-71
2022/03/29 03:03:04;;;;;;;54.25;26.02;;;;;;;9.50;100.00;101099.28;5073712;28;20142;-73
2022/03/29 03:05:31;;;;;;;47.13;24.05;;;;;;;9.49;100.00;101098.47;5069895;28;20052;-71
2022/03/29 03:07:58;;;;;;;48.58;24.50;;;;;;;9.48;100.00;101099.66;5079220;28;20050;-72
2022/03/29 03:10:25;;;;;;;43.95;23.30;;;;;;;9.48;100.00;101098.84;5081745;28;20048;-71
2022/03/29 03:12:52;;;;;;;47.17;23.70;;;;;;;9.41;100.00;101096.84;5075063;28;20122;-72
2022/03/29 03:15:21;;;;;;;48.42;25.55;;;;;;;9.38;100.00;101085.78;5082008;28;20082;-72
2022/03/29 03:17:50;;;;;;;48.55;23.25;;;;;;;9.36;100.00;101088.91;5074196;28;20056;-72
2022/03/29 03:20:17;;;;;;;46.10;24.35;;;;;;;9.29;100.00;101091.59;5075169;28;20056;-71
2022/03/29 03:22:44;;;;;;;51.00;24.27;;;;;;;9.26;100.00;101084.06;5066915;28;20139;-71
2022/03/29 03:25:11;;;;;;;48.63;24.50;;;;;;;9.25;100.00;101084.44;5081442;28;20097;-72
2022/03/29 03:27:40;;;;;;;47.72;24.80;;;;;;;9.23;100.00;101084.03;5073714;28;20534;-71
2022/03/29 03:30:10;;;;;;;41.75;21.88;;;;;;;9.18;100.00;101087.91;5080504;28;20568;-72
2022/03/29 03:32:36;;;;;;;49.42;26.20;;;;;;;9.11;100.00;101081.56;5075626;28;20075;-71
2022/03/29 03:35:04;;;;;;;49.17;24.77;;;;;;;9.09;100.00;101079.16;5080810;28;20048;-74
2022/03/29 03:37:31;;;;;;;48.40;23.38;;;;;;;9.05;100.00;101083.06;5071840;28;20439;-72
2022/03/29 03:39:57;;;;;;;50.72;25.05;;;;;;;9.03;100.00;101075.16;5088896;28;20051;-73
2022/03/29 03:42:24;;;;;;;48.05;24.67;;;;;;;9.00;100.00;101086.94;5071282;28;20800;-72
2022/03/29 03:44:50;;;;;;;49.67;23.92;;;;;;;8.98;100.00;101077.47;5069488;28;20132;-71
2022/03/29 03:47:17;;;;;;;40.92;20.92;;;;;;;8.88;100.00;101078.91;5069534;28;20075;-70
2022/03/29 03:49:43;;;;;;;48.50;25.75;;;;;;;8.86;100.00;101072.19;5069301;28;20049;-71
2022/03/29 03:52:10;;;;;;;47.97;24.40;;;;;;;8.73;100.00;101071.66;5086132;28;20048;-71
2022/03/29 03:54:37;;;;;;;46.55;25.15;;;;;;;8.70;100.00;101069.63;5089184;28;20581;-73
2022/03/29 03:57:04;;;;;;;51.10;26.38;;;;;;;8.71;100.00;101062.94;5087574;28;20516;-72
2022/03/29 03:59:32;;;;;;;49.22;24.70;;;;;;;8.70;100.00;101060.56;5082695;28;20080;-71
2022/03/29 04:01:59;;;;;;;53.45;25.10;;;;;;;8.65;100.00;101063.66;5070885;28;20048;-70
2022/03/29 04:04:25;;;;;;;53.92;25.17;;;;;;;8.58;100.00;101063.59;5068836;28;20056;-72
2022/03/29 04:06:52;;;;;;;43.65;19.23;;;;;;;8.50;100.00;101061.91;5071609;28;20116;-72
2022/03/29 04:09:19;;;;;;;52.72;25.02;;;;;;;8.41;100.00;101053.13;5080213;28;20139;-72
2022/03/29 04:11:45;;;;;;;57.42;25.90;;;;;;;8.39;100.00;101050.75;5080924;28;20137;-70
2022/03/29 04:14:12;;;;;;;52.45;27.35;;;;;;;8.36;100.00;101042.41;5081299;28;20829;-70
2022/03/29 04:16:38;;;;;;;59.35;30.40;;;;;;;8.32;100.00;101041.56;5068647;28;20760;-70
2022/03/29 04:19:05;;;;;;;52.95;26.45;;;;;;;8.32;100.00;101045.13;5068778;28;20063;-71
2022/03/29 04:21:32;;;;;;;55.33;25.58;;;;;;;8.30;100.00;101047.47;5067760;28;20139;-72
2022/03/29 04:23:59;;;;;;;54.47;23.58;;;;;;;8.32;100.00;101045.13;5071436;28;20055;-73
2022/03/29 04:26:26;;;;;;;53.50;24.60;;;;;;;8.31;100.00;101049.06;5077273;28;20043;-71
2022/03/29 04:28:52;;;;;;;58.70;26.23;;;;;;;8.28;100.00;101035.22;5083840;28;20052;-71
2022/03/29 04:31:19;;;;;;;61.08;28.65;;;;;;;8.27;100.00;101036.41;5076994;28;20127;-71
2022/03/29 04:33:46;;;;;;;58.13;27.50;;;;;;;8.27;100.00;101030.88;5083237;28;20131;-73
2022/03/29 04:36:12;;;;;;;61.20;28.90;;;;;;;8.25;100.00;101030.44;5084098;28;20514;-70
2022/03/29 04:38:39;;;;;;;57.47;27.63;;;;;;;8.24;100.00;101028.88;5088860;28;20143;-72
2022/03/29 04:41:05;;;;;;;56.45;27.13;;;;;;;8.21;100.00;101021.31;5072157;28;20423;-73
2022/03/29 04:43:32;;;;;;;68.40;30.05;;;;;;;8.18;100.00;101031.13;5068272;28;20090;-73
2022/03/29 04:46:01;;;;;;;63.30;28.77;;;;;;;8.16;100.00;101027.16;5070875;28;20056;-72
2022/03/29 04:48:29;;;;;;;57.63;27.00;;;;;;;8.14;100.00;101021.22;5067987;28;20520;-72
2022/03/29 04:50:56;;;;;;;61.22;26.85;;;;;;;8.13;100.00;101025.94;5066736;28;20143;-73
2022/03/29 04:53:22;;;;;;;60.00;26.27;;;;;;;8.13;100.00;101030.66;5067449;28;20098;-73
2022/03/29 04:55:50;;;;;;;67.05;31.27;;;;;;;8.07;100.00;101021.94;5073237;28;20048;-72
2022/03/29 04:58:17;;;;;;;58.58;26.65;;;;;;;8.04;100.00;101017.16;5069960;28;20055;-72
2022/03/29 05:00:44;;;;;;;69.53;32.67;;;;;;;8.07;100.00;101017.19;5072542;28;20052;-72
2022/03/29 05:03:11;;;;;;;63.58;28.85;;;;;;;8.07;100.00;101017.19;5068041;28;20496;-74
2022/03/29 05:05:37;;;;;;;68.95;27.88;;;;;;;8.09;100.00;101014.06;5073844;28;20627;-72
2022/03/29 05:08:04;;;;;;;65.72;29.33;;;;;;;8.09;100.00;101005.03;5081472;28;20080;-73
2022/03/29 05:10:31;;;;;;;65.15;28.33;;;;;;;8.08;100.00;101006.97;5075291;28;20084;-71
2022/03/29 05:12:57;;;;;;;68.13;32.72;;;;;;;8.02;100.00;101006.50;5072620;28;20048;-71
2022/03/29 05:15:24;;;;;;;73.80;36.38;;;;;;;8.01;100.00;100993.88;5068553;28;20074;-72
2022/03/29 05:17:51;;;;;;;67.63;31.48;;;;;;;7.97;100.00;100990.28;5074355;28;20059;-71
2022/03/29 05:20:17;;;;;;;71.68;33.60;;;;;;;7.98;100.00;100996.59;5076165;28;20079;-71
2022/03/29 05:22:46;;;;;;;65.15;29.70;;;;;;;7.97;100.00;101000.53;5071028;28;20572;-72
2022/03/29 05:25:15;;;;;;;64.20;29.02;;;;;;;7.91;100.00;100993.75;5076190;28;20080;-71
2022/03/29 05:27:42;;;;;;;64.32;29.95;;;;;;;7.91;100.00;100991.78;5071399;28;20044;-71
2022/03/29 05:30:11;;;;;;;65.07;28.83;;;;;;;7.90;100.00;100992.19;5067631;28;20459;-71
2022/03/29 05:32:38;;;;;;;68.53;29.10;;;;;;;7.92;100.00;100987.88;5067787;28;20068;-70
2022/03/29 05:35:07;;;;;;;67.05;31.58;;;;;;;7.94;100.00;100995.75;5067823;28;20053;-71
2022/03/29 05:37:35;;;;;;;64.63;28.35;;;;;;;7.94;100.00;100993.78;5072664;28;20052;-73
2022/03/29 05:40:04;;;;;;;66.32;29.95;;;;;;;7.95;100.00;100989.88;5079754;28;20048;-72
2022/03/29 05:42:31;;;;;;;64.63;29.95;;;;;;;7.95;100.00;100997.34;5068629;28;20102;-72
2022/03/29 05:44:57;;;;;;;62.15;26.55;;;;;;;7.97;100.00;100990.28;5067349;28;20475;-72
2022/03/29 05:50:09;;;;;;;57.50;26.55;;;;;;;7.94;100.00;100990.25;5075238;28;20127;-72
2022/03/29 05:52:35;;;;;;;70.60;32.20;;;;;;;7.94;100.00;100987.50;5066132;28;20052;-71
2022/03/29 05:55:02;;;;;;;68.55;29.20;;;;;;;7.98;100.00;100993.84;5067087;28;20793;-72
2022/03/29 05:57:28;;;;;;;66.82;30.80;;;;;;;8.04;100.00;100995.88;5067295;28;20666;-73
2022/03/29 05:59:55;;;;;;;66.93;31.27;;;;;;;8.06;100.00;100997.50;5070420;28;20581;-73
2022/03/29 06:02:24;;;;;;;70.53;29.35;;;;;;;8.00;100.00;100989.53;5067722;28;20076;-74
2022/03/29 06:04:51;;;;;;;72.25;32.38;;;;;;;8.04;100.00;100990.38;5074914;28;20063;-73
2022/03/29 06:07:19;;;;;;;75.93;32.60;;;;;;;8.08;100.00;100990.44;5073258;28;20084;-73
2022/03/29 06:09:46;;;;;;;58.45;24.63;;;;;;;8.06;100.00;100989.22;5083196;28;20127;-73
2022/03/29 06:12:12;;;;;;;68.25;29.38;;;;;;;8.07;100.00;100991.63;5076439;28;20091;-73
2022/03/29 06:14:39;;;;;;;68.40;30.48;;;;;;;8.14;100.00;100999.97;5067994;28;20720;-74
2022/03/29 06:17:06;;;;;;;77.38;32.58;;;;;;;8.15;100.00;101011.78;5067893;28;20059;-73
2022/03/29 06:19:33;;;;;;;61.53;27.10;;;;;;;8.12;100.00;101002.31;5077379;28;20056;-74
2022/03/29 06:21:59;;;;;;;64.93;28.70;;;;;;;8.10;100.00;101007.38;5073697;28;20784;-72
2022/03/29 06:24:29;;;;;;;71.03;30.83;;;;;;;8.08;100.00;101006.97;5077802;28;20076;-74
2022/03/29 06:26:55;;;;;;;69.65;31.75;;;;;;;8.09;100.00;101003.03;5083141;28;20102;-75
2022/03/29 06:29:22;;;;;;;73.13;33.38;;;;;;;8.11;100.00;101005.44;5072199;28;20472;-73
2022/03/29 06:31:49;;;;;;;66.65;30.20;;;;;;;8.08;100.00;101001.47;5069919;28;21960;-75
2022/03/29 06:34:15;;;;;;;71.07;34.83;;;;;;;8.12;100.00;100996.78;5080277;28;20471;-73
2022/03/29 06:36:42;;;;;;;69.32;31.52;;;;;;;8.14;100.00;101005.50;5079976;28;20048;-73
2022/03/29 06:39:11;;;;;;;69.82;33.40;;;;;;;8.18;100.00;101002.75;5083151;28;20471;-73
2022/03/29 06:41:38;;;;;;;77.82;33.97;;;;;;;8.16;100.00;101008.66;5079289;28;20055;-73
2022/03/29 06:44:07;;;;;;;66.00;27.67;;;;;;;8.16;100.00;101003.13;5076876;28;20067;-73
2022/03/29 06:46:34;;;;;;;73.32;32.13;;;;;;;8.18;100.00;101000.81;5076643;28;20049;-74
2022/03/29 06:49:03;;;;;;;78.22;34.28;;;;;;;8.21;100.00;101011.09;5084533;28;20047;-75
2022/03/29 06:51:30;;;;;;;81.93;38.92;;;;;;;8.20;100.00;101006.72;5074169;28;20135;-74
2022/03/29 06:53:57;;;;;;;74.50;30.77;;;;;;;8.18;100.00;101016.53;5080150;28;20159;-70
2022/03/29 06:56:25;;;;;;;69.30;28.98;;;;;;;8.19;100.00;101024.44;5069013;28;20084;-73
2022/03/29 06:58:52;;;;;;;75.32;32.35;;;;;;;8.19;100.00;101020.88;5072298;28;20059;-73
2022/03/29 07:01:19;;;;;;;77.38;32.65;;;;;;;8.23;100.00;101017.03;5072083;28;20052;-72
2022/03/29 07:03:45;;;;;;;73.60;32.83;;;;;;;8.26;100.00;101013.53;5073860;28;20062;-71
2022/03/29 07:06:12;;;;;;;72.43;30.08;;;;;;;8.25;100.00;101011.97;5072059;28;20052;-72
2022/03/29 07:11:16;;;;;;;79.35;33.83;;;;;;;8.26;100.00;101021.81;5086405;28;20052;-71
2022/03/29 07:11:48;;;;;;;78.85;34.28;;;;;;;8.29;100.00;101017.50;5074879;28;20044;-71
2022/03/29 07:14:15;;;;;;;66.63;25.38;;;;;;;8.28;100.00;101011.22;5080161;28;20516;-73
2022/03/29 07:16:43;;;;;;;66.35;26.75;;;;;;;8.35;100.00;101016.00;5070224;28;20056;-70
2022/03/29 07:19:10;;;;;;;91.03;33.58;;;;;;;8.34;100.00;101017.19;5069843;28;20063;-72
2022/03/29 07:21:39;;;;;;;85.05;35.15;;;;;;;8.36;100.00;101029.44;5073606;28;20492;-72
2022/03/29 07:24:06;;;;;;;91.35;36.92;;;;;;;8.36;100.00;101018.41;5072574;28;20097;-72
2022/03/29 07:26:34;;;;;;;94.03;37.15;;;;;;;8.32;100.00;101020.31;5081211;28;20074;-72
2022/03/29 07:29:01;;;;;;;94.82;36.05;;;;;;;8.34;100.00;101029.03;5071148;28;20193;-71
2022/03/29 07:31:27;;;;;;;92.93;36.45;;;;;;;8.35;100.00;101029.78;5072840;28;20044;-72
2022/03/29 07:33:54;;;;;;;85.25;34.80;;;;;;;8.36;100.00;101018.41;5071168;28;20052;-72
2022/03/29 07:36:20;;;;;;;86.82;37.35;;;;;;;8.36;100.00;101014.84;5089313;28;20048;-71
2022/03/29 07:38:48;;;;;;;80.68;33.03;;;;;;;8.44;100.00;101019.28;5080313;28;20385;-71
2022/03/29 07:41:14;;;;;;;75.22;32.95;;;;;;;8.43;100.00;101018.47;5071852;28;20131;-73
2022/03/29 07:43:41;;;;;;;78.05;33.03;;;;;;;8.39;100.00;101017.66;5069630;28;20048;-71
2022/03/29 07:46:07;;;;;;;78.50;33.65;;;;;;;8.36;100.00;101017.59;5070694;28;20075;-72
2022/03/29 07:48:34;;;;;;;81.70;35.47;;;;;;;8.41;100.00;101017.28;5067450;28;20054;-72
2022/03/29 07:51:21;;;;;;;77.80;33.67;;;;;;;8.41;100.00;101020.84;5067804;28;20044;-74
2022/03/29 07:53:47;;;;;;;71.88;30.83;;;;;;;8.39;100.00;101020.41;5078563;28;20048;-72
2022/03/29 07:56:14;;;;;;;83.03;34.13;;;;;;;8.42;100.00;101016.09;5076903;28;20058;-73
2022/03/29 07:58:41;;;;;;;82.35;35.15;;;;;;;8.43;100.00;101012.97;5071115;28;20143;-73
2022/03/29 08:01:07;;;;;;;84.72;34.85;;;;;;;8.45;100.00;101009.84;5075857;28;20058;-72
2022/03/29 08:03:34;;;;;;;84.70;34.30;;;;;;;8.47;100.00;101016.56;5074860;28;20064;-72
2022/03/29 08:06:02;;;;;;;74.82;31.77;;;;;;;8.49;100.00;101021.69;5078011;28;20475;-74
2022/03/29 08:08:31;;;;;;;83.60;32.95;;;;;;;8.48;100.00;101026.44;5082905;28;20435;-74
2022/03/29 08:10:58;;;;;;;87.70;38.60;;;;;;;8.44;100.00;101006.28;5085389;28;20046;-75
2022/03/29 08:13:25;;;;;;;81.05;35.42;;;;;;;8.43;100.00;101029.50;5081006;28;20131;-71
2022/03/29 08:15:53;;;;;;;83.57;34.85;;;;;;;8.45;100.00;101009.84;5068485;28;20045;-73
2022/03/29 08:18:20;;;;;;;84.10;36.22;;;;;;;8.52;100.00;101015.44;5077073;28;20052;-73
2022/03/29 08:20:47;;;;;;;76.88;31.60;;;;;;;8.51;100.00;101006.38;5072107;28;20045;-72
2022/03/29 08:23:14;;;;;;;85.10;37.60;;;;;;;8.54;100.00;101013.88;5075553;28;20102;-72
2022/03/29 08:25:44;;;;;;;81.88;36.17;;;;;;;8.58;100.00;101002.91;5078141;28;20496;-72
2022/03/29 08:28:12;;;;;;;80.80;31.52;;;;;;;8.60;100.00;101001.34;5080294;28;20152;-72
2022/03/29 08:30:40;;;;;;;85.50;34.70;;;;;;;8.59;100.00;101001.72;5067913;28;20143;-73
2022/03/29 08:33:07;;;;;;;85.35;35.33;;;;;;;8.58;100.00;101003.72;5067586;28;20048;-71
2022/03/29 08:35:37;;;;;;;79.65;34.78;;;;;;;8.59;100.00;100998.97;5068368;28;20127;-74
2022/03/29 08:38:04;;;;;;;84.85;33.17;;;;;;;8.64;100.00;101013.22;5071122;28;20166;-71
2022/03/29 08:40:55;;;;;;;88.93;33.33;;;;;;;8.62;100.00;101000.97;5079920;28;20064;-71
2022/03/29 08:43:26;;;;;;;88.88;36.92;;;;;;;8.68;100.00;101013.25;5066566;28;20049;-73
2022/03/29 08:45:53;;;;;;;81.28;30.95;;;;;;;8.66;100.00;101007.31;5070075;28;20130;-72
2022/03/29 08:48:26;;;;;;;81.00;32.17;;;;;;;8.66;100.00;101005.38;5073940;28;20060;-74
2022/03/29 08:50:53;;;;;;;79.88;34.83;;;;;;;8.70;100.00;101003.44;5074499;28;20105;-72
2022/03/29 08:53:43;;;;;;;76.78;31.90;;;;;;;8.73;100.00;101005.44;5072278;28;20053;-74
2022/03/29 08:56:10;;;;;;;89.03;35.63;;;;;;;8.72;100.00;101003.84;5077707;28;20817;-72
2022/03/29 08:58:36;;;;;;;92.07;37.22;;;;;;;8.71;100.00;100998.72;5077553;28;20117;-72
2022/03/29 09:01:03;;;;;;;90.32;37.08;;;;;;;8.75;100.00;101002.31;5082762;28;20063;-75
2022/03/29 09:03:34;;;;;;;88.97;35.85;;;;;;;8.77;100.00;100988.94;5068496;28;20143;-73
2022/03/29 09:06:11;;;;;;;84.88;34.03;;;;;;;8.87;100.00;100991.00;5084002;28;20104;-74
2022/03/29 09:08:45;;;;;;;83.22;34.88;;;;;;;8.83;100.00;100988.19;5083238;28;20481;-75
2022/03/29 09:11:13;;;;;;;84.40;36.00;;;;;;;8.87;100.00;100986.28;5082833;28;20474;-72
2022/03/29 09:13:40;;;;;;;89.88;38.55;;;;;;;8.91;100.00;100991.84;5085249;28;20093;-75
2022/03/29 09:16:25;;;;;;;89.68;34.40;;;;;;;8.95;100.00;100990.72;5068707;28;20060;-76
2022/03/29 09:18:56;;;;;;;83.38;34.60;;;;;;;9.00;100.00;100984.03;5070838;28;20084;-73
2022/03/29 09:21:24;;;;;;;85.57;33.83;;;;;;;9.05;100.00;100978.94;5066711;28;20070;-72
2022/03/29 09:24:11;;;;;;;90.35;36.20;;;;;;;9.10;100.00;100973.09;5074319;28;20093;-72
2022/03/29 09:26:40;;;;;;;87.97;32.40;;;;;;;9.12;100.00;100976.28;5073319;28;20055;-73
2022/03/29 09:29:19;;;;;;;78.32;31.58;;;;;;;9.18;100.00;100979.47;5075342;28;20052;-71
2022/03/29 09:32:00;;;;;;;80.88;34.40;;;;;;;9.21;100.00;100973.19;5071618;28;20052;-72
2022/03/29 09:34:28;;;;;;;80.85;31.13;;;;;;;9.23;100.00;100968.88;5066944;28;20041;-73
2022/03/29 09:36:55;;;;;;;77.68;32.47;;;;;;;9.23;100.00;100966.09;5066342;28;20113;-72
2022/03/29 09:39:38;;;;;;;52.47;21.67;;;;;;;9.25;100.00;100960.97;5077903;28;20094;-74
2022/03/29 09:42:09;;;;;;;82.50;35.20;;;;;;;9.28;100.00;100965.75;5072955;28;20055;-74
2022/03/29 09:44:45;;;;;;;75.07;33.53;;;;;;;9.28;100.00;100960.22;5066187;28;20080;-72
2022/03/29 09:47:14;;;;;;;87.60;36.30;;;;;;;9.32;100.00;100952.75;5066263;28;20076;-71
2022/03/29 09:50:08;;;;;;;72.55;29.92;;;;;;;9.36;100.00;100953.59;5082356;28;20090;-74
2022/03/29 09:52:39;;;;;;;76.57;29.17;;;;;;;9.39;100.00;100955.56;5065913;28;20049;-75
2022/03/29 09:55:21;;;;;;;83.50;31.17;;;;;;;9.36;100.00;100952.78;5067140;28;20139;-76
2022/03/29 09:57:51;;;;;;;75.00;31.38;;;;;;;9.38;100.00;100955.97;5071789;28;20058;-73
2022/03/29 10:00:19;;;;;;;82.25;32.50;;;;;;;9.38;100.00;100955.97;5070796;28;20135;-74
2022/03/29 10:02:46;;;;;;;68.43;26.48;;;;;;;9.38;100.00;100950.44;5072902;28;20051;-74
2022/03/29 10:05:17;;;;;;;78.88;30.58;;;;;;;9.41;100.00;100953.22;5084074;28;20606;-71
2022/03/29 10:07:50;;;;;;;82.40;33.05;;;;;;;9.41;100.00;100961.50;5082101;28;20048;-72
2022/03/29 10:10:16;;;;;;;75.68;31.95;;;;;;;9.45;100.00;100965.09;5082862;28;20059;-73
2022/03/29 10:12:43;;;;;;;72.82;34.08;;;;;;;9.47;100.00;100948.94;5074252;28;20086;-72
2022/03/29 10:15:30;;;;;;;83.60;34.50;;;;;;;9.50;100.00;100950.13;5084895;28;20155;-71
2022/03/29 10:17:57;;;;;;;75.95;31.25;;;;;;;9.49;100.00;100943.78;5081883;28;20570;-72
2022/03/29 10:20:24;;;;;;;76.70;29.85;;;;;;;9.51;100.00;100946.19;5079251;28;20142;-72
2022/03/29 10:22:54;;;;;;;82.18;32.88;;;;;;;9.55;100.00;100947.03;5076068;28;20049;-72
2022/03/29 10:25:21;;;;;;;77.15;32.13;;;;;;;9.58;100.00;100947.03;5076014;28;20121;-74
2022/03/29 10:27:48;;;;;;;75.07;30.15;;;;;;;9.66;100.00;100945.88;5076186;28;20559;-72
2022/03/29 10:30:34;;;;;;;72.75;30.02;;;;;;;9.69;100.00;100944.34;5074214;28;20060;-73
2022/03/29 10:33:22;;;;;;;;;;;;;;;9.67;100.00;100935.63;5071059;28;20068;-71
2022/03/29 10:36:12;;;;;;;64.70;27.20;;;;;;;9.72;100.00;100933.28;5073879;28;19928;-71
2022/03/29 10:38:47;;;;;;;66.20;28.52;;;;;;;9.84;100.00;100932.97;5092429;28;20083;-71
2022/03/29 10:41:26;;;;;;;71.07;29.30;;;;;;;9.89;100.00;100938.13;5076895;28;20083;-71
2022/03/29 10:44:06;;;;;;;66.13;27.42;;;;;;;9.90;100.00;100936.97;5076316;28;20397;-71
2022/03/29 10:46:39;;;;;;;63.72;23.05;;;;;;;9.90;100.00;100925.91;5073238;28;20575;-72
2022/03/29 10:49:32;;;;;;;77.57;31.77;;;;;;;9.95;100.00;100931.06;5071530;28;20122;-73
2022/03/29 10:52:04;;;;;;;72.03;29.65;;;;;;;9.97;100.00;100923.19;5079965;28;20063;-73
2022/03/29 10:54:37;;;;;;;79.43;31.73;;;;;;;10.00;100.00;100921.59;5070556;28;20059;-71
2022/03/29 10:57:06;;;;;;;73.75;29.58;;;;;;;10.09;100.00;100922.03;5072714;28;20083;-71
2022/03/29 10:59:37;;;;;;;65.95;28.60;;;;;;;10.09;100.00;100916.50;5091025;28;20048;-71
2022/03/29 11:02:06;;;;;;;65.35;25.40;;;;;;;10.15;100.00;100918.53;5078657;28;20511;-71
2022/03/29 11:04:33;;;;;;;66.40;27.42;;;;;;;10.20;100.00;100918.16;5083764;28;20093;-71
2022/03/29 11:07:06;;;;;;;74.03;31.92;;;;;;;10.22;100.00;100909.47;5072027;28;20565;-73
2022/03/29 11:09:37;;;;;;;62.72;26.77;;;;;;;10.24;100.00;100909.88;5076988;28;20536;-74
2022/03/29 11:12:04;;;;;;;59.90;26.85;;;;;;;10.24;100.00;100894.09;5080739;28;20556;-73
2022/03/29 11:14:33;;;;;;;68.68;29.45;;;;;;;10.35;100.00;100897.66;5076342;28;20044;-72
2022/03/29 11:17:09;;;;;;;65.93;28.27;;;;;;;10.43;100.00;100893.72;5083202;28;20051;-72
2022/03/29 11:19:44;;;;;;;73.90;29.40;;;;;;;10.48;100.00;100900.84;5071261;28;20121;-72
2022/03/29 11:22:29;;;;;;;71.50;30.67;;;;;;;10.49;100.00;100894.13;5066401;28;20051;-71
2022/03/29 11:24:59;;;;;;;72.20;31.60;;;;;;;10.47;100.00;100900.03;5076731;28;20047;-72